sensor_id;sensor_type;location;lat;lon;timestamp;P1;durP1;ratioP1;P2;durP2;ratioP2
55328;SDS011;41205;44.264;19.884;2024-02-16T00:00:23;52.95;;;29.92;;
55328;SDS011;41205;44.264;19.884;2024-02-16T00:02:50;55.88;;;34.78;;
55328;SDS011;41205;44.264;19.884;2024-02-16T00:05:16;70.50;;;39.00;;
55328;SDS011;41205;44.264;19.884;2024-02-16T00:07:42;71.75;;;43.35;;
55328;SDS011;41205;44.264;19.884;2024-02-16T00:10:08;98.45;;;59.13;;
55328;SDS011;41205;44.264;19.884;2024-02-16T00:12:35;104.75;;;63.53;;
55328;SDS011;41205;44.264;19.884;2024-02-16T00:15:03;56.83;;;34.30;;
55328;SDS011;41205;44.264;19.884;2024-02-16T00:17:29;36.33;;;20.60;;
55328;SDS011;41205;44.264;19.884;2024-02-16T00:19:55;29.05;;;15.45;;
55328;SDS011;41205;44.264;19.884;2024-02-16T00:22:22;26.52;;;15.50;;
55328;SDS011;41205;44.264;19.884;2024-02-16T00:24:48;23.77;;;14.13;;
55328;SDS011;41205;44.264;19.884;2024-02-16T00:27:14;30.50;;;16.05;;
55328;SDS011;41205;44.264;19.884;2024-02-16T00:29:40;25.42;;;16.58;;
55328;SDS011;41205;44.264;19.884;2024-02-16T00:32:06;19.35;;;13.05;;
55328;SDS011;41205;44.264;19.884;2024-02-16T00:34:33;20.05;;;14.95;;
55328;SDS011;41205;44.264;19.884;2024-02-16T00:37:00;36.65;;;21.20;;
55328;SDS011;41205;44.264;19.884;2024-02-16T00:39:26;31.65;;;21.17;;
55328;SDS011;41205;44.264;19.884;2024-02-16T00:41:53;28.42;;;17.67;;
55328;SDS011;41205;44.264;19.884;2024-02-16T00:44:18;40.83;;;23.40;;
55328;SDS011;41205;44.264;19.884;2024-02-16T00:46:44;35.47;;;21.23;;
55328;SDS011;41205;44.264;19.884;2024-02-16T00:49:10;29.95;;;18.83;;
55328;SDS011;41205;44.264;19.884;2024-02-16T00:51:36;31.67;;;20.17;;
55328;SDS011;41205;44.264;19.884;2024-02-16T00:54:03;28.75;;;18.38;;
55328;SDS011;41205;44.264;19.884;2024-02-16T00:56:29;25.80;;;17.17;;
55328;SDS011;41205;44.264;19.884;2024-02-16T00:58:58;29.63;;;17.92;;
55328;SDS011;41205;44.264;19.884;2024-02-16T01:01:24;34.80;;;19.05;;
55328;SDS011;41205;44.264;19.884;2024-02-16T01:03:51;32.63;;;21.60;;
55328;SDS011;41205;44.264;19.884;2024-02-16T01:06:18;36.75;;;23.13;;
55328;SDS011;41205;44.264;19.884;2024-02-16T01:08:45;33.88;;;23.60;;
55328;SDS011;41205;44.264;19.884;2024-02-16T01:11:11;24.55;;;13.57;;
55328;SDS011;41205;44.264;19.884;2024-02-16T01:13:38;18.65;;;12.90;;
55328;SDS011;41205;44.264;19.884;2024-02-16T01:16:05;16.83;;;11.65;;
55328;SDS011;41205;44.264;19.884;2024-02-16T01:18:31;26.52;;;13.18;;
55328;SDS011;41205;44.264;19.884;2024-02-16T01:20:58;26.08;;;15.75;;
55328;SDS011;41205;44.264;19.884;2024-02-16T01:23:23;31.90;;;16.88;;
55328;SDS011;41205;44.264;19.884;2024-02-16T01:25:49;48.42;;;29.30;;
55328;SDS011;41205;44.264;19.884;2024-02-16T01:28:15;52.15;;;44.10;;
55328;SDS011;41205;44.264;19.884;2024-02-16T01:30:41;35.97;;;20.15;;
55328;SDS011;41205;44.264;19.884;2024-02-16T01:33:07;122.03;;;70.53;;
55328;SDS011;41205;44.264;19.884;2024-02-16T01:35:33;65.45;;;37.17;;
55328;SDS011;41205;44.264;19.884;2024-02-16T01:37:59;44.47;;;26.13;;
55328;SDS011;41205;44.264;19.884;2024-02-16T01:40:26;36.55;;;23.25;;
55328;SDS011;41205;44.264;19.884;2024-02-16T01:42:52;31.30;;;19.02;;
55328;SDS011;41205;44.264;19.884;2024-02-16T01:45:19;23.05;;;13.88;;
55328;SDS011;41205;44.264;19.884;2024-02-16T01:47:46;22.98;;;15.68;;
55328;SDS011;41205;44.264;19.884;2024-02-16T01:50:14;100.13;;;63.40;;
55328;SDS011;41205;44.264;19.884;2024-02-16T01:52:44;75.40;;;46.50;;
55328;SDS011;41205;44.264;19.884;2024-02-16T01:55:11;65.38;;;40.45;;
55328;SDS011;41205;44.264;19.884;2024-02-16T01:57:40;40.47;;;25.27;;
55328;SDS011;41205;44.264;19.884;2024-02-16T02:00:08;21.25;;;13.38;;
55328;SDS011;41205;44.264;19.884;2024-02-16T02:02:37;22.65;;;14.15;;
55328;SDS011;41205;44.264;19.884;2024-02-16T02:05:03;15.50;;;8.52;;
55328;SDS011;41205;44.264;19.884;2024-02-16T02:07:29;23.77;;;13.02;;
55328;SDS011;41205;44.264;19.884;2024-02-16T02:09:55;18.75;;;12.15;;
55328;SDS011;41205;44.264;19.884;2024-02-16T02:12:21;42.60;;;27.00;;
55328;SDS011;41205;44.264;19.884;2024-02-16T02:14:48;23.75;;;14.40;;
55328;SDS011;41205;44.264;19.884;2024-02-16T02:17:14;15.27;;;11.35;;
55328;SDS011;41205;44.264;19.884;2024-02-16T02:19:41;14.23;;;9.13;;
55328;SDS011;41205;44.264;19.884;2024-02-16T02:22:25;26.02;;;15.07;;
55328;SDS011;41205;44.264;19.884;2024-02-16T02:24:52;26.45;;;14.90;;
55328;SDS011;41205;44.264;19.884;2024-02-16T02:27:20;48.90;;;26.27;;
55328;SDS011;41205;44.264;19.884;2024-02-16T02:29:46;40.80;;;25.35;;
55328;SDS011;41205;44.264;19.884;2024-02-16T02:32:12;41.03;;;27.15;;
55328;SDS011;41205;44.264;19.884;2024-02-16T02:34:38;37.05;;;23.83;;
55328;SDS011;41205;44.264;19.884;2024-02-16T02:37:04;27.85;;;18.75;;
55328;SDS011;41205;44.264;19.884;2024-02-16T02:39:31;26.50;;;15.68;;
55328;SDS011;41205;44.264;19.884;2024-02-16T02:41:57;35.30;;;19.80;;
55328;SDS011;41205;44.264;19.884;2024-02-16T02:44:24;39.00;;;25.65;;
55328;SDS011;41205;44.264;19.884;2024-02-16T02:46:50;34.22;;;23.42;;
55328;SDS011;41205;44.264;19.884;2024-02-16T02:49:17;32.50;;;22.58;;
55328;SDS011;41205;44.264;19.884;2024-02-16T02:51:43;31.48;;;22.83;;
55328;SDS011;41205;44.264;19.884;2024-02-16T02:54:08;17.95;;;10.77;;
55328;SDS011;41205;44.264;19.884;2024-02-16T02:56:34;12.55;;;7.25;;
55328;SDS011;41205;44.264;19.884;2024-02-16T02:59:00;20.58;;;12.73;;
55328;SDS011;41205;44.264;19.884;2024-02-16T03:01:26;23.88;;;11.95;;
55328;SDS011;41205;44.264;19.884;2024-02-16T03:03:52;11.38;;;7.40;;
55328;SDS011;41205;44.264;19.884;2024-02-16T03:06:21;11.35;;;6.90;;
55328;SDS011;41205;44.264;19.884;2024-02-16T03:08:48;12.80;;;6.78;;
55328;SDS011;41205;44.264;19.884;2024-02-16T03:11:14;14.23;;;9.68;;
55328;SDS011;41205;44.264;19.884;2024-02-16T03:13:39;18.27;;;10.93;;
55328;SDS011;41205;44.264;19.884;2024-02-16T03:16:05;16.08;;;9.40;;
55328;SDS011;41205;44.264;19.884;2024-02-16T03:18:32;11.27;;;8.82;;
55328;SDS011;41205;44.264;19.884;2024-02-16T03:20:59;12.25;;;7.57;;
55328;SDS011;41205;44.264;19.884;2024-02-16T03:23:25;13.50;;;6.72;;
55328;SDS011;41205;44.264;19.884;2024-02-16T03:25:51;30.20;;;18.17;;
55328;SDS011;41205;44.264;19.884;2024-02-16T03:28:17;30.15;;;16.88;;
55328;SDS011;41205;44.264;19.884;2024-02-16T03:30:43;23.05;;;12.95;;
55328;SDS011;41205;44.264;19.884;2024-02-16T03:33:09;23.70;;;14.18;;
55328;SDS011;41205;44.264;19.884;2024-02-16T03:35:35;21.95;;;12.63;;
55328;SDS011;41205;44.264;19.884;2024-02-16T03:38:02;19.30;;;10.50;;
55328;SDS011;41205;44.264;19.884;2024-02-16T03:40:29;17.23;;;7.13;;
55328;SDS011;41205;44.264;19.884;2024-02-16T03:42:55;9.95;;;6.43;;
55328;SDS011;41205;44.264;19.884;2024-02-16T03:45:20;11.15;;;7.57;;
55328;SDS011;41205;44.264;19.884;2024-02-16T03:47:47;13.40;;;8.00;;
55328;SDS011;41205;44.264;19.884;2024-02-16T03:50:14;15.75;;;10.88;;
55328;SDS011;41205;44.264;19.884;2024-02-16T03:52:40;15.00;;;9.35;;
55328;SDS011;41205;44.264;19.884;2024-02-16T03:55:06;20.05;;;11.18;;
55328;SDS011;41205;44.264;19.884;2024-02-16T03:57:33;17.80;;;11.88;;
55328;SDS011;41205;44.264;19.884;2024-02-16T03:59:58;18.48;;;12.57;;
55328;SDS011;41205;44.264;19.884;2024-02-16T04:02:24;23.77;;;13.45;;
55328;SDS011;41205;44.264;19.884;2024-02-16T04:04:50;18.88;;;14.07;;
55328;SDS011;41205;44.264;19.884;2024-02-16T04:07:16;16.48;;;10.38;;
55328;SDS011;41205;44.264;19.884;2024-02-16T04:09:42;15.23;;;8.85;;
55328;SDS011;41205;44.264;19.884;2024-02-16T04:12:08;11.45;;;7.68;;
55328;SDS011;41205;44.264;19.884;2024-02-16T04:14:35;12.55;;;6.68;;
55328;SDS011;41205;44.264;19.884;2024-02-16T04:17:01;9.57;;;6.07;;
55328;SDS011;41205;44.264;19.884;2024-02-16T04:19:27;9.70;;;6.63;;
55328;SDS011;41205;44.264;19.884;2024-02-16T04:21:52;16.35;;;10.40;;
55328;SDS011;41205;44.264;19.884;2024-02-16T04:24:18;20.33;;;10.38;;
55328;SDS011;41205;44.264;19.884;2024-02-16T04:26:44;13.48;;;8.52;;
55328;SDS011;41205;44.264;19.884;2024-02-16T04:29:10;24.60;;;12.82;;
55328;SDS011;41205;44.264;19.884;2024-02-16T04:31:39;27.50;;;17.48;;
55328;SDS011;41205;44.264;19.884;2024-02-16T04:34:07;21.05;;;14.38;;
55328;SDS011;41205;44.264;19.884;2024-02-16T04:36:33;32.85;;;17.92;;
55328;SDS011;41205;44.264;19.884;2024-02-16T04:38:59;27.27;;;13.55;;
55328;SDS011;41205;44.264;19.884;2024-02-16T04:41:26;21.98;;;12.07;;
55328;SDS011;41205;44.264;19.884;2024-02-16T04:43:53;19.35;;;11.45;;
55328;SDS011;41205;44.264;19.884;2024-02-16T04:46:19;22.65;;;12.63;;
55328;SDS011;41205;44.264;19.884;2024-02-16T04:48:46;27.42;;;16.15;;
55328;SDS011;41205;44.264;19.884;2024-02-16T04:51:12;34.10;;;20.25;;
55328;SDS011;41205;44.264;19.884;2024-02-16T04:53:37;16.17;;;9.25;;
55328;SDS011;41205;44.264;19.884;2024-02-16T04:56:03;25.50;;;11.52;;
55328;SDS011;41205;44.264;19.884;2024-02-16T04:58:30;45.80;;;21.77;;
55328;SDS011;41205;44.264;19.884;2024-02-16T05:00:56;54.75;;;31.27;;
55328;SDS011;41205;44.264;19.884;2024-02-16T05:03:22;46.47;;;24.70;;
55328;SDS011;41205;44.264;19.884;2024-02-16T05:05:48;31.17;;;16.70;;
55328;SDS011;41205;44.264;19.884;2024-02-16T05:08:14;25.20;;;14.10;;
55328;SDS011;41205;44.264;19.884;2024-02-16T05:10:40;18.67;;;10.73;;
55328;SDS011;41205;44.264;19.884;2024-02-16T05:13:06;22.52;;;13.43;;
55328;SDS011;41205;44.264;19.884;2024-02-16T05:15:31;20.83;;;14.75;;
55328;SDS011;41205;44.264;19.884;2024-02-16T05:17:57;24.52;;;13.68;;
55328;SDS011;41205;44.264;19.884;2024-02-16T05:20:23;14.40;;;10.13;;
55328;SDS011;41205;44.264;19.884;2024-02-16T05:22:50;17.33;;;11.05;;
55328;SDS011;41205;44.264;19.884;2024-02-16T05:25:16;18.35;;;10.40;;
55328;SDS011;41205;44.264;19.884;2024-02-16T05:27:45;35.63;;;20.00;;
55328;SDS011;41205;44.264;19.884;2024-02-16T05:30:12;47.17;;;22.67;;
55328;SDS011;41205;44.264;19.884;2024-02-16T05:32:40;36.15;;;20.95;;
55328;SDS011;41205;44.264;19.884;2024-02-16T05:35:07;18.05;;;10.13;;
55328;SDS011;41205;44.264;19.884;2024-02-16T05:37:43;20.02;;;10.52;;
55328;SDS011;41205;44.264;19.884;2024-02-16T05:40:10;16.02;;;10.32;;
55328;SDS011;41205;44.264;19.884;2024-02-16T05:42:55;18.92;;;12.07;;
55328;SDS011;41205;44.264;19.884;2024-02-16T05:45:26;13.35;;;8.88;;
55328;SDS011;41205;44.264;19.884;2024-02-16T05:47:51;13.80;;;11.80;;
55328;SDS011;41205;44.264;19.884;2024-02-16T05:50:19;13.18;;;7.63;;
55328;SDS011;41205;44.264;19.884;2024-02-16T05:52:46;13.50;;;9.23;;
55328;SDS011;41205;44.264;19.884;2024-02-16T05:55:12;14.93;;;8.35;;
55328;SDS011;41205;44.264;19.884;2024-02-16T05:57:38;24.88;;;14.52;;
55328;SDS011;41205;44.264;19.884;2024-02-16T06:00:04;17.27;;;10.60;;
55328;SDS011;41205;44.264;19.884;2024-02-16T06:02:31;16.85;;;11.20;;
55328;SDS011;41205;44.264;19.884;2024-02-16T06:04:58;20.20;;;14.52;;
55328;SDS011;41205;44.264;19.884;2024-02-16T06:07:24;49.22;;;24.38;;
55328;SDS011;41205;44.264;19.884;2024-02-16T06:09:50;24.65;;;15.15;;
55328;SDS011;41205;44.264;19.884;2024-02-16T06:12:16;22.02;;;12.43;;
55328;SDS011;41205;44.264;19.884;2024-02-16T06:14:42;22.50;;;14.10;;
55328;SDS011;41205;44.264;19.884;2024-02-16T06:17:08;42.40;;;25.88;;
55328;SDS011;41205;44.264;19.884;2024-02-16T06:19:37;34.63;;;18.65;;
55328;SDS011;41205;44.264;19.884;2024-02-16T06:22:03;45.03;;;28.13;;
55328;SDS011;41205;44.264;19.884;2024-02-16T06:24:28;31.10;;;18.08;;
55328;SDS011;41205;44.264;19.884;2024-02-16T06:26:54;25.10;;;15.95;;
55328;SDS011;41205;44.264;19.884;2024-02-16T06:29:20;30.83;;;17.55;;
55328;SDS011;41205;44.264;19.884;2024-02-16T06:31:46;64.85;;;42.38;;
55328;SDS011;41205;44.264;19.884;2024-02-16T06:34:15;73.78;;;44.67;;
55328;SDS011;41205;44.264;19.884;2024-02-16T06:36:41;73.63;;;47.90;;
55328;SDS011;41205;44.264;19.884;2024-02-16T06:39:07;69.90;;;41.28;;
55328;SDS011;41205;44.264;19.884;2024-02-16T06:41:35;52.65;;;30.20;;
55328;SDS011;41205;44.264;19.884;2024-02-16T06:44:02;36.97;;;21.75;;
55328;SDS011;41205;44.264;19.884;2024-02-16T06:46:29;23.98;;;15.90;;
55328;SDS011;41205;44.264;19.884;2024-02-16T06:48:55;16.50;;;10.13;;
55328;SDS011;41205;44.264;19.884;2024-02-16T06:51:23;17.77;;;10.38;;
55328;SDS011;41205;44.264;19.884;2024-02-16T06:53:50;16.38;;;11.20;;
55328;SDS011;41205;44.264;19.884;2024-02-16T06:56:16;26.38;;;21.02;;
55328;SDS011;41205;44.264;19.884;2024-02-16T06:58:43;17.17;;;11.95;;
55328;SDS011;41205;44.264;19.884;2024-02-16T07:01:10;48.78;;;30.10;;
55328;SDS011;41205;44.264;19.884;2024-02-16T07:03:37;149.10;;;94.72;;
55328;SDS011;41205;44.264;19.884;2024-02-16T07:06:03;187.73;;;117.35;;
55328;SDS011;41205;44.264;19.884;2024-02-16T07:08:32;198.85;;;121.53;;
55328;SDS011;41205;44.264;19.884;2024-02-16T07:10:58;156.65;;;104.38;;
55328;SDS011;41205;44.264;19.884;2024-02-16T07:13:24;122.53;;;81.13;;
55328;SDS011;41205;44.264;19.884;2024-02-16T07:15:50;104.25;;;66.43;;
55328;SDS011;41205;44.264;19.884;2024-02-16T07:18:16;62.10;;;38.38;;
55328;SDS011;41205;44.264;19.884;2024-02-16T07:20:42;56.85;;;39.50;;
55328;SDS011;41205;44.264;19.884;2024-02-16T07:23:07;34.85;;;23.67;;
55328;SDS011;41205;44.264;19.884;2024-02-16T07:25:35;28.77;;;16.70;;
55328;SDS011;41205;44.264;19.884;2024-02-16T07:28:01;17.27;;;11.50;;
55328;SDS011;41205;44.264;19.884;2024-02-16T07:30:27;26.45;;;21.42;;
55328;SDS011;41205;44.264;19.884;2024-02-16T07:32:53;16.65;;;10.90;;
55328;SDS011;41205;44.264;19.884;2024-02-16T07:35:19;15.45;;;11.82;;
55328;SDS011;41205;44.264;19.884;2024-02-16T07:37:46;16.58;;;10.73;;
55328;SDS011;41205;44.264;19.884;2024-02-16T07:40:13;15.55;;;11.32;;
55328;SDS011;41205;44.264;19.884;2024-02-16T07:42:39;17.77;;;13.10;;
55328;SDS011;41205;44.264;19.884;2024-02-16T07:45:05;17.75;;;11.60;;
55328;SDS011;41205;44.264;19.884;2024-02-16T07:47:31;18.15;;;12.13;;
55328;SDS011;41205;44.264;19.884;2024-02-16T07:49:57;19.92;;;13.18;;
55328;SDS011;41205;44.264;19.884;2024-02-16T07:52:23;17.30;;;13.20;;
55328;SDS011;41205;44.264;19.884;2024-02-16T07:54:49;13.98;;;11.13;;
55328;SDS011;41205;44.264;19.884;2024-02-16T07:57:16;18.13;;;12.35;;
55328;SDS011;41205;44.264;19.884;2024-02-16T07:59:42;20.13;;;16.40;;
55328;SDS011;41205;44.264;19.884;2024-02-16T08:02:09;17.42;;;12.13;;
55328;SDS011;41205;44.264;19.884;2024-02-16T08:04:35;17.13;;;15.27;;
55328;SDS011;41205;44.264;19.884;2024-02-16T08:07:06;28.98;;;22.98;;
55328;SDS011;41205;44.264;19.884;2024-02-16T08:09:32;35.03;;;28.45;;
55328;SDS011;41205;44.264;19.884;2024-02-16T08:11:58;44.75;;;37.78;;
55328;SDS011;41205;44.264;19.884;2024-02-16T08:14:24;43.05;;;38.03;;
55328;SDS011;41205;44.264;19.884;2024-02-16T08:16:50;46.55;;;41.22;;
55328;SDS011;41205;44.264;19.884;2024-02-16T08:19:16;60.60;;;50.08;;
55328;SDS011;41205;44.264;19.884;2024-02-16T08:21:42;66.55;;;58.35;;
55328;SDS011;41205;44.264;19.884;2024-02-16T08:24:09;51.85;;;45.55;;
55328;SDS011;41205;44.264;19.884;2024-02-16T08:26:35;77.32;;;67.90;;
55328;SDS011;41205;44.264;19.884;2024-02-16T08:29:01;49.90;;;43.70;;
55328;SDS011;41205;44.264;19.884;2024-02-16T08:31:27;32.63;;;27.58;;
55328;SDS011;41205;44.264;19.884;2024-02-16T08:33:53;29.70;;;26.75;;
55328;SDS011;41205;44.264;19.884;2024-02-16T08:36:19;32.97;;;28.27;;
55328;SDS011;41205;44.264;19.884;2024-02-16T08:38:46;25.58;;;22.98;;
55328;SDS011;41205;44.264;19.884;2024-02-16T08:41:12;26.02;;;23.30;;
55328;SDS011;41205;44.264;19.884;2024-02-16T08:43:38;36.35;;;31.30;;
55328;SDS011;41205;44.264;19.884;2024-02-16T08:46:04;78.53;;;65.75;;
55328;SDS011;41205;44.264;19.884;2024-02-16T08:48:32;63.42;;;56.17;;
55328;SDS011;41205;44.264;19.884;2024-02-16T08:50:58;47.55;;;42.42;;
55328;SDS011;41205;44.264;19.884;2024-02-16T08:53:24;56.17;;;50.05;;
55328;SDS011;41205;44.264;19.884;2024-02-16T08:55:49;46.28;;;41.47;;
55328;SDS011;41205;44.264;19.884;2024-02-16T08:58:15;56.40;;;47.65;;
55328;SDS011;41205;44.264;19.884;2024-02-16T09:00:41;35.90;;;32.10;;
55328;SDS011;41205;44.264;19.884;2024-02-16T09:03:07;38.35;;;31.73;;
55328;SDS011;41205;44.264;19.884;2024-02-16T09:05:33;38.22;;;34.15;;
55328;SDS011;41205;44.264;19.884;2024-02-16T09:07:59;105.07;;;78.57;;
55328;SDS011;41205;44.264;19.884;2024-02-16T09:10:27;200.15;;;149.00;;
55328;SDS011;41205;44.264;19.884;2024-02-16T09:12:52;61.05;;;49.30;;
55328;SDS011;41205;44.264;19.884;2024-02-16T09:15:18;123.60;;;87.80;;
55328;SDS011;41205;44.264;19.884;2024-02-16T09:17:44;30.63;;;25.30;;
55328;SDS011;41205;44.264;19.884;2024-02-16T09:20:10;242.00;;;156.45;;
55328;SDS011;41205;44.264;19.884;2024-02-16T09:22:36;79.43;;;58.10;;
55328;SDS011;41205;44.264;19.884;2024-02-16T09:25:04;81.38;;;60.45;;
55328;SDS011;41205;44.264;19.884;2024-02-16T09:27:30;51.88;;;45.75;;
55328;SDS011;41205;44.264;19.884;2024-02-16T09:29:56;35.22;;;29.23;;
55328;SDS011;41205;44.264;19.884;2024-02-16T09:32:22;39.15;;;35.22;;
55328;SDS011;41205;44.264;19.884;2024-02-16T09:34:48;39.42;;;35.20;;
55328;SDS011;41205;44.264;19.884;2024-02-16T09:37:13;29.70;;;25.83;;
55328;SDS011;41205;44.264;19.884;2024-02-16T09:39:40;37.13;;;31.02;;
55328;SDS011;41205;44.264;19.884;2024-02-16T09:42:06;40.53;;;34.53;;
55328;SDS011;41205;44.264;19.884;2024-02-16T09:44:32;41.17;;;35.85;;
55328;SDS011;41205;44.264;19.884;2024-02-16T09:47:01;32.28;;;28.27;;
55328;SDS011;41205;44.264;19.884;2024-02-16T09:49:28;34.38;;;28.60;;
55328;SDS011;41205;44.264;19.884;2024-02-16T09:51:54;36.65;;;28.55;;
55328;SDS011;41205;44.264;19.884;2024-02-16T09:54:24;28.98;;;22.70;;
55328;SDS011;41205;44.264;19.884;2024-02-16T09:56:50;32.92;;;21.27;;
55328;SDS011;41205;44.264;19.884;2024-02-16T09:59:16;25.52;;;18.83;;
55328;SDS011;41205;44.264;19.884;2024-02-16T10:01:42;31.95;;;26.80;;
55328;SDS011;41205;44.264;19.884;2024-02-16T10:04:08;30.90;;;22.98;;
55328;SDS011;41205;44.264;19.884;2024-02-16T10:06:45;30.70;;;22.52;;
55328;SDS011;41205;44.264;19.884;2024-02-16T10:09:24;28.45;;;21.35;;
55328;SDS011;41205;44.264;19.884;2024-02-16T10:11:51;26.05;;;17.33;;
55328;SDS011;41205;44.264;19.884;2024-02-16T10:14:17;22.23;;;14.27;;
55328;SDS011;41205;44.264;19.884;2024-02-16T10:16:47;27.80;;;19.92;;
55328;SDS011;41205;44.264;19.884;2024-02-16T10:19:23;23.13;;;14.13;;
55328;SDS011;41205;44.264;19.884;2024-02-16T10:21:49;32.53;;;22.63;;
55328;SDS011;41205;44.264;19.884;2024-02-16T10:24:20;22.52;;;15.75;;
55328;SDS011;41205;44.264;19.884;2024-02-16T10:26:47;20.08;;;14.68;;
55328;SDS011;41205;44.264;19.884;2024-02-16T10:29:14;23.67;;;15.98;;
55328;SDS011;41205;44.264;19.884;2024-02-16T10:31:44;19.67;;;12.63;;
55328;SDS011;41205;44.264;19.884;2024-02-16T10:34:11;20.25;;;13.98;;
55328;SDS011;41205;44.264;19.884;2024-02-16T10:36:37;19.85;;;13.10;;
55328;SDS011;41205;44.264;19.884;2024-02-16T10:39:04;30.20;;;20.63;;
55328;SDS011;41205;44.264;19.884;2024-02-16T10:41:34;43.88;;;26.65;;
55328;SDS011;41205;44.264;19.884;2024-02-16T10:44:03;36.22;;;22.25;;
55328;SDS011;41205;44.264;19.884;2024-02-16T10:46:30;11.48;;;7.43;;
55328;SDS011;41205;44.264;19.884;2024-02-16T10:48:57;11.90;;;8.20;;
55328;SDS011;41205;44.264;19.884;2024-02-16T10:51:25;8.48;;;5.85;;
55328;SDS011;41205;44.264;19.884;2024-02-16T10:54:03;39.92;;;26.35;;
55328;SDS011;41205;44.264;19.884;2024-02-16T10:59:00;13.45;;;9.88;;
55328;SDS011;41205;44.264;19.884;2024-02-16T11:01:47;18.02;;;13.13;;
55328;SDS011;41205;44.264;19.884;2024-02-16T11:04:24;7.05;;;5.95;;
55328;SDS011;41205;44.264;19.884;2024-02-16T11:06:53;54.47;;;36.03;;
55328;SDS011;41205;44.264;19.884;2024-02-16T11:12:03;15.98;;;9.85;;
55328;SDS011;41205;44.264;19.884;2024-02-16T11:14:42;14.52;;;10.43;;
55328;SDS011;41205;44.264;19.884;2024-02-16T11:17:14;10.60;;;6.80;;
55328;SDS011;41205;44.264;19.884;2024-02-16T11:19:45;21.60;;;14.73;;
55328;SDS011;41205;44.264;19.884;2024-02-16T11:22:18;19.90;;;13.13;;
55328;SDS011;41205;44.264;19.884;2024-02-16T11:24:48;13.63;;;10.10;;
55328;SDS011;41205;44.264;19.884;2024-02-16T11:27:15;31.27;;;19.35;;
55328;SDS011;41205;44.264;19.884;2024-02-16T11:29:46;42.13;;;29.02;;
55328;SDS011;41205;44.264;19.884;2024-02-16T11:32:12;15.55;;;12.02;;
55328;SDS011;41205;44.264;19.884;2024-02-16T11:34:38;14.32;;;12.63;;
55328;SDS011;41205;44.264;19.884;2024-02-16T11:37:04;38.10;;;25.40;;
55328;SDS011;41205;44.264;19.884;2024-02-16T11:39:30;28.17;;;18.73;;
55328;SDS011;41205;44.264;19.884;2024-02-16T11:42:07;22.90;;;16.63;;
55328;SDS011;41205;44.264;19.884;2024-02-16T11:44:36;13.40;;;9.25;;
55328;SDS011;41205;44.264;19.884;2024-02-16T11:47:05;14.32;;;10.00;;
55328;SDS011;41205;44.264;19.884;2024-02-16T11:49:37;15.30;;;10.63;;
55328;SDS011;41205;44.264;19.884;2024-02-16T11:52:04;17.67;;;12.57;;
55328;SDS011;41205;44.264;19.884;2024-02-16T11:54:30;48.55;;;30.77;;
55328;SDS011;41205;44.264;19.884;2024-02-16T11:56:56;24.08;;;16.90;;
55328;SDS011;41205;44.264;19.884;2024-02-16T11:59:23;22.95;;;15.30;;
55328;SDS011;41205;44.264;19.884;2024-02-16T12:01:52;17.70;;;9.85;;
55328;SDS011;41205;44.264;19.884;2024-02-16T12:04:26;19.95;;;11.60;;
55328;SDS011;41205;44.264;19.884;2024-02-16T12:06:55;17.27;;;11.45;;
55328;SDS011;41205;44.264;19.884;2024-02-16T12:09:22;17.15;;;11.07;;
55328;SDS011;41205;44.264;19.884;2024-02-16T12:11:49;15.43;;;8.90;;
55328;SDS011;41205;44.264;19.884;2024-02-16T12:14:16;22.05;;;15.27;;
55328;SDS011;41205;44.264;19.884;2024-02-16T12:16:46;122.35;;;81.43;;
55328;SDS011;41205;44.264;19.884;2024-02-16T12:19:13;65.38;;;39.78;;
55328;SDS011;41205;44.264;19.884;2024-02-16T12:21:39;16.60;;;11.40;;
55328;SDS011;41205;44.264;19.884;2024-02-16T12:24:05;16.98;;;11.10;;
55328;SDS011;41205;44.264;19.884;2024-02-16T12:26:35;13.57;;;9.52;;
55328;SDS011;41205;44.264;19.884;2024-02-16T12:29:01;18.17;;;11.48;;
55328;SDS011;41205;44.264;19.884;2024-02-16T12:31:27;20.25;;;11.60;;
55328;SDS011;41205;44.264;19.884;2024-02-16T12:33:54;34.50;;;20.52;;
55328;SDS011;41205;44.264;19.884;2024-02-16T12:36:20;23.50;;;14.80;;
55328;SDS011;41205;44.264;19.884;2024-02-16T12:38:48;21.50;;;14.68;;
55328;SDS011;41205;44.264;19.884;2024-02-16T12:41:15;27.40;;;17.85;;
55328;SDS011;41205;44.264;19.884;2024-02-16T12:43:41;40.53;;;25.45;;
55328;SDS011;41205;44.264;19.884;2024-02-16T12:46:06;27.60;;;20.15;;
55328;SDS011;41205;44.264;19.884;2024-02-16T12:48:32;20.15;;;14.25;;
55328;SDS011;41205;44.264;19.884;2024-02-16T12:50:58;15.70;;;12.40;;
55328;SDS011;41205;44.264;19.884;2024-02-16T12:53:24;13.43;;;10.43;;
55328;SDS011;41205;44.264;19.884;2024-02-16T12:55:50;10.05;;;7.78;;
55328;SDS011;41205;44.264;19.884;2024-02-16T12:58:16;17.83;;;13.23;;
55328;SDS011;41205;44.264;19.884;2024-02-16T13:00:42;23.10;;;14.05;;
55328;SDS011;41205;44.264;19.884;2024-02-16T13:03:08;20.25;;;12.80;;
55328;SDS011;41205;44.264;19.884;2024-02-16T13:05:33;26.67;;;15.88;;
55328;SDS011;41205;44.264;19.884;2024-02-16T13:08:00;33.67;;;21.10;;
55328;SDS011;41205;44.264;19.884;2024-02-16T13:10:25;17.90;;;11.93;;
55328;SDS011;41205;44.264;19.884;2024-02-16T13:12:52;15.82;;;12.02;;
55328;SDS011;41205;44.264;19.884;2024-02-16T13:15:17;19.38;;;12.55;;
55328;SDS011;41205;44.264;19.884;2024-02-16T13:17:43;51.50;;;25.98;;
55328;SDS011;41205;44.264;19.884;2024-02-16T13:20:09;29.35;;;19.52;;
55328;SDS011;41205;44.264;19.884;2024-02-16T13:22:36;17.92;;;8.80;;
55328;SDS011;41205;44.264;19.884;2024-02-16T13:25:05;195.75;;;129.43;;
55328;SDS011;41205;44.264;19.884;2024-02-16T13:27:34;47.65;;;29.35;;
55328;SDS011;41205;44.264;19.884;2024-02-16T13:30:00;25.15;;;17.25;;
55328;SDS011;41205;44.264;19.884;2024-02-16T13:32:26;18.27;;;13.00;;
55328;SDS011;41205;44.264;19.884;2024-02-16T13:34:52;21.55;;;14.30;;
55328;SDS011;41205;44.264;19.884;2024-02-16T13:37:18;19.20;;;13.00;;
55328;SDS011;41205;44.264;19.884;2024-02-16T13:39:43;36.55;;;21.27;;
55328;SDS011;41205;44.264;19.884;2024-02-16T13:42:10;43.55;;;24.10;;
55328;SDS011;41205;44.264;19.884;2024-02-16T13:44:38;29.15;;;15.18;;
55328;SDS011;41205;44.264;19.884;2024-02-16T13:47:04;30.95;;;17.63;;
55328;SDS011;41205;44.264;19.884;2024-02-16T13:49:30;20.00;;;11.65;;
55328;SDS011;41205;44.264;19.884;2024-02-16T13:51:55;19.52;;;11.18;;
55328;SDS011;41205;44.264;19.884;2024-02-16T13:54:24;21.35;;;14.05;;
55328;SDS011;41205;44.264;19.884;2024-02-16T13:56:50;16.65;;;10.35;;
55328;SDS011;41205;44.264;19.884;2024-02-16T13:59:16;30.38;;;21.75;;
55328;SDS011;41205;44.264;19.884;2024-02-16T14:01:42;24.15;;;14.27;;
55328;SDS011;41205;44.264;19.884;2024-02-16T14:04:08;54.72;;;29.83;;
55328;SDS011;41205;44.264;19.884;2024-02-16T14:06:34;33.70;;;19.63;;
55328;SDS011;41205;44.264;19.884;2024-02-16T14:09:00;83.82;;;43.63;;
55328;SDS011;41205;44.264;19.884;2024-02-16T14:11:33;49.78;;;24.35;;